Time;durP1;ratioP1;P1;durP2;ratioP2;P2;SDS_P1;SDS_P2;PMS_P1;PMS_P2;Temp;Humidity;BMP_temperature;BMP_pressure;BME280_temperature;BME280_humidity;BME280_pressure;Samples;Min_cycle;Max_cycle;Signal;HPM_P1;HPM_P2
2022/01/02 00:00:22;;;;;;;6.40;5.33;;;7.90;99.90;;;;;;4996462;28;20411;-63
2022/01/02 00:02:51;;;;;;;7.33;6.07;;;8.00;99.90;;;;;;4996950;28;20494;-63
2022/01/02 00:05:20;;;;;;;8.03;6.90;;;8.10;99.90;;;;;;4996723;28;20409;-63
2022/01/02 00:07:54;;;;;;;6.80;6.10;;;8.10;99.90;;;;;;4997092;28;20944;-63
2022/01/02 00:10:21;;;;;;;7.93;5.97;;;7.90;99.90;;;;;;4996817;28;20508;-63
2022/01/02 00:12:56;;;;;;;7.23;5.77;;;7.90;99.90;;;;;;4996902;28;20938;-63
2022/01/02 00:15:24;;;;;;;7.63;5.40;;;7.80;99.90;;;;;;4996915;28;20719;-63
2022/01/02 00:17:55;;;;;;;7.20;6.50;;;7.80;99.90;;;;;;4996759;28;20464;-62
2022/01/02 00:20:31;;;;;;;10.70;6.20;;;7.80;99.90;;;;;;4996626;28;20811;-63
2022/01/02 00:22:59;;;;;;;6.03;5.53;;;7.90;99.90;;;;;;4996571;28;20401;-62
2022/01/02 00:25:30;;;;;;;6.20;5.60;;;7.90;99.90;;;;;;4996563;28;20776;-63
2022/01/02 00:27:58;;;;;;;6.67;5.40;;;7.90;99.90;;;;;;4996515;28;20998;-63
2022/01/02 00:30:25;;;;;;;6.67;5.63;;;7.80;99.90;;;;;;4996551;28;20974;-63
2022/01/02 00:32:51;;;;;;;6.10;5.50;;;7.70;99.90;;;;;;4996487;28;20413;-63
2022/01/02 00:35:16;;;;;;;7.13;5.60;;;7.70;99.90;;;;;;4996823;28;20408;-63
2022/01/02 00:37:42;;;;;;;6.10;4.97;;;7.80;99.90;;;;;;4995999;28;20507;-62
2022/01/02 00:40:08;;;;;;;5.90;5.40;;;7.80;99.90;;;;;;4996466;28;20241;-63
2022/01/02 00:42:41;;;;;;;6.43;5.37;;;7.80;99.90;;;;;;4996375;28;20179;-63
2022/01/02 00:45:08;;;;;;;6.20;5.00;;;7.80;99.90;;;;;;4996184;28;20412;-63
2022/01/02 00:47:36;;;;;;;6.40;5.03;;;7.90;99.90;;;;;;4996419;28;20428;-63
2022/01/02 00:50:20;;;;;;;6.00;4.87;;;7.80;99.90;;;;;;4996593;28;20496;-62
2022/01/02 00:52:47;;;;;;;5.23;4.70;;;7.70;99.90;;;;;;4996570;28;20409;-63
2022/01/02 00:55:18;;;;;;;5.23;4.73;;;7.60;99.90;;;;;;4996706;28;20773;-62
2022/01/02 00:57:56;;;;;;;6.43;5.20;;;7.60;99.90;;;;;;4996311;28;20806;-62
2022/01/02 01:00:23;;;;;;;6.23;4.70;;;7.70;99.90;;;;;;4996805;28;20431;-62
2022/01/02 01:02:52;;;;;;;5.20;4.70;;;7.70;99.90;;;;;;4996583;28;20459;-62
2022/01/02 01:05:19;;;;;;;5.70;5.10;;;7.80;99.90;;;;;;4996427;28;20421;-62
2022/01/02 01:07:51;;;;;;;5.23;4.37;;;7.80;99.90;;;;;;4996517;28;20428;-63
2022/01/02 01:10:17;;;;;;;5.23;4.40;;;7.70;99.90;;;;;;4996199;28;20431;-63
2022/01/02 01:12:45;;;;;;;4.53;3.53;;;7.70;99.90;;;;;;4996018;28;20414;-63
2022/01/02 01:15:11;;;;;;;4.73;4.10;;;7.70;99.90;;;;;;4995871;28;20393;-63
2022/01/02 01:17:38;;;;;;;5.30;4.80;;;7.80;99.90;;;;;;4995676;28;20428;-62
2022/01/02 01:20:07;;;;;;;7.70;5.70;;;7.80;99.90;;;;;;4995777;28;20175;-63
2022/01/02 01:22:32;;;;;;;4.47;4.07;;;7.80;99.90;;;;;;4996004;28;20411;-63
2022/01/02 01:24:58;;;;;;;4.93;4.20;;;7.80;99.90;;;;;;4995870;28;20441;-63
2022/01/02 01:27:24;;;;;;;6.00;4.33;;;7.90;99.90;;;;;;4995552;28;20751;-63
2022/01/02 01:29:50;;;;;;;4.93;4.40;;;7.70;99.90;;;;;;4995616;28;20227;-63
2022/01/02 01:32:15;;;;;;;5.07;4.30;;;7.70;99.90;;;;;;4995383;28;20449;-63
2022/01/02 01:34:41;;;;;;;5.10;4.03;;;7.80;99.90;;;;;;4995184;28;20283;-63
2022/01/02 01:37:07;;;;;;;5.10;4.60;;;7.70;99.90;;;;;;4995358;28;20203;-63
2022/01/02 01:39:32;;;;;;;6.40;4.67;;;7.60;99.90;;;;;;4995404;28;20178;-63
2022/01/02 01:42:06;;;;;;;8.20;4.80;;;7.50;99.90;;;;;;4994986;28;20173;-63
2022/01/02 01:44:51;;;;;;;5.43;4.93;;;7.60;99.90;;;;;;4995453;28;20157;-63
2022/01/02 01:47:16;;;;;;;5.07;4.57;;;7.70;99.90;;;;;;4994972;28;20428;-63
2022/01/02 01:49:42;;;;;;;5.40;4.90;;;7.80;99.90;;;;;;4995183;28;20934;-63
2022/01/02 01:52:08;;;;;;;5.77;5.10;;;7.80;99.90;;;;;;4994868;28;20220;-63
2022/01/02 01:54:33;;;;;;;6.00;4.30;;;7.70;99.90;;;;;;4994903;28;20201;-63
2022/01/02 01:57:02;;;;;;;5.47;4.80;;;7.60;99.90;;;;;;4994584;28;20552;-63
2022/01/02 01:59:27;;;;;;;5.87;4.60;;;7.50;99.90;;;;;;4995381;28;20169;-63
2022/01/02 02:01:53;;;;;;;5.03;4.40;;;7.40;99.90;;;;;;4995120;28;20413;-62
2022/01/02 02:04:19;;;;;;;7.13;4.70;;;7.40;99.90;;;;;;4995642;28;20182;-63
2022/01/02 02:06:45;;;;;;;4.97;4.47;;;7.50;99.90;;;;;;5003293;28;20589;-63
2022/01/02 02:09:11;;;;;;;5.40;4.80;;;7.50;99.90;;;;;;5000649;28;20444;-62
2022/01/02 02:11:38;;;;;;;5.50;4.90;;;7.50;99.90;;;;;;4996183;28;20171;-62
2022/01/02 02:14:06;;;;;;;5.30;4.20;;;7.40;99.90;;;;;;5003001;28;20658;-63
2022/01/02 02:16:36;;;;;;;5.03;4.30;;;7.30;99.90;;;;;;4994194;28;20946;-63
2022/01/02 02:19:03;;;;;;;4.23;3.83;;;7.30;99.90;;;;;;4994175;28;20409;-63
2022/01/02 02:21:31;;;;;;;4.97;4.47;;;7.30;99.90;;;;;;4994359;28;20464;-63
2022/01/02 02:23:57;;;;;;;6.47;5.23;;;7.40;99.90;;;;;;4994561;28;20402;-63
2022/01/02 02:26:22;;;;;;;5.10;4.60;;;7.40;99.90;;;;;;4994491;28;20491;-63
2022/01/02 02:28:48;;;;;;;4.40;3.80;;;7.50;99.90;;;;;;4994117;28;20675;-63
2022/01/02 02:31:14;;;;;;;6.40;4.87;;;7.50;99.90;;;;;;4994190;28;20225;-63
2022/01/02 02:33:39;;;;;;;7.10;4.67;;;7.50;99.90;;;;;;4993975;28;20549;-63
2022/01/02 02:36:05;;;;;;;5.10;4.70;;;7.50;99.90;;;;;;4994043;28;20157;-62
2022/01/02 02:38:32;;;;;;;7.23;4.10;;;7.40;99.90;;;;;;4994192;28;20178;-63
2022/01/02 02:40:58;;;;;;;5.00;4.50;;;7.40;99.90;;;;;;4994271;28;20162;-63
2022/01/02 02:43:31;;;;;;;5.17;4.40;;;7.30;99.90;;;;;;4994007;28;20982;-63
2022/01/02 02:49:00;;;;;;;5.37;4.87;;;7.30;99.90;;;;;;4993795;28;20554;-62
2022/01/02 02:51:33;;;;;;;4.17;3.77;;;7.30;99.90;;;;;;4993847;28;20982;-63
2022/01/02 02:53:59;;;;;;;4.27;3.87;;;7.30;99.90;;;;;;4994173;28;20380;-63
2022/01/02 02:56:40;;;;;;;5.60;5.00;;;7.30;99.90;;;;;;4994077;28;20419;-63
2022/01/02 02:59:06;;;;;;;6.37;4.80;;;7.40;99.90;;;;;;4994329;28;20557;-63
2022/01/02 03:01:32;;;;;;;5.00;4.50;;;7.40;99.90;;;;;;4993751;28;20411;-62
2022/01/02 03:03:57;;;;;;;4.87;4.07;;;7.30;99.90;;;;;;4993929;28;20901;-62
2022/01/02 03:06:23;;;;;;;5.17;4.20;;;7.40;99.90;;;;;;4993679;28;20670;-63
2022/01/02 03:08:49;;;;;;;5.80;4.83;;;7.40;99.90;;;;;;4993572;28;20598;-63
2022/01/02 03:11:19;;;;;;;5.10;4.63;;;7.30;99.90;;;;;;4994021;28;20197;-63
2022/01/02 03:13:46;;;;;;;5.50;4.97;;;7.20;99.90;;;;;;4993766;28;20845;-63
2022/01/02 03:16:12;;;;;;;5.13;4.63;;;7.20;99.90;;;;;;4993755;28;20440;-63
2022/01/02 03:18:38;;;;;;;5.73;5.13;;;7.20;99.90;;;;;;4993544;28;20447;-63
2022/01/02 03:21:04;;;;;;;5.53;4.53;;;7.20;99.90;;;;;;4993914;28;20185;-63
2022/01/02 03:23:30;;;;;;;5.00;4.60;;;7.20;99.90;;;;;;4993473;28;20408;-63
2022/01/02 03:25:56;;;;;;;5.60;4.43;;;7.20;99.90;;;;;;4993571;28;20826;-63
2022/01/02 03:28:22;;;;;;;5.00;4.50;;;7.30;99.90;;;;;;4993304;28;20221;-63
2022/01/02 03:30:48;;;;;;;5.13;4.30;;;7.40;99.90;;;;;;4996238;28;20445;-63
2022/01/02 03:33:14;;;;;;;6.90;4.90;;;7.30;99.90;;;;;;4997593;28;20653;-63
2022/01/02 03:35:40;;;;;;;5.40;4.80;;;7.40;99.90;;;;;;4997259;28;20164;-63
2022/01/02 03:38:06;;;;;;;6.37;5.70;;;7.50;99.90;;;;;;4997106;28;20781;-63
2022/01/02 03:40:32;;;;;;;5.03;4.10;;;7.40;99.90;;;;;;4997759;28;20162;-63
2022/01/02 03:42:58;;;;;;;5.80;4.83;;;7.30;99.90;;;;;;4997161;28;20411;-63
2022/01/02 03:45:23;;;;;;;6.03;4.83;;;7.30;99.90;;;;;;4997214;28;20416;-59
2022/01/02 03:47:49;;;;;;;5.00;4.20;;;7.40;99.90;;;;;;4997291;28;20565;-63
2022/01/02 03:50:15;;;;;;;5.90;5.10;;;7.30;99.90;;;;;;4996999;28;20486;-63
2022/01/02 03:52:41;;;;;;;6.53;5.33;;;7.30;99.90;;;;;;4997124;28;20589;-63
2022/01/02 03:55:07;;;;;;;7.57;5.97;;;7.20;99.90;;;;;;4996938;28;20408;-62
2022/01/02 03:57:34;;;;;;;11.00;5.37;;;7.20;99.90;;;;;;4996895;28;20194;-63
2022/01/02 03:59:59;;;;;;;7.30;6.07;;;7.20;99.90;;;;;;4996901;28;20410;-63
2022/01/02 04:02:25;;;;;;;6.90;5.20;;;7.10;99.90;;;;;;4996700;28;20412;-63
2022/01/02 04:04:51;;;;;;;6.17;5.57;;;7.10;99.90;;;;;;4997164;28;20690;-63
2022/01/02 04:07:16;;;;;;;6.23;5.63;;;7.20;99.90;;;;;;4996731;28;20428;-63
2022/01/02 04:09:42;;;;;;;5.63;5.03;;;7.20;99.90;;;;;;4996571;28;20199;-63
2022/01/02 04:12:08;;;;;;;6.27;4.57;;;7.00;99.90;;;;;;4996951;28;20166;-63
2022/01/02 04:14:34;;;;;;;5.50;4.60;;;7.00;99.90;;;;;;4996840;28;20238;-63
2022/01/02 04:17:00;;;;;;;7.23;5.47;;;7.00;99.90;;;;;;4996632;28;20793;-63
2022/01/02 04:19:25;;;;;;;5.13;4.63;;;7.00;99.90;;;;;;4996545;28;20416;-63
2022/01/02 04:21:51;;;;;;;6.13;5.20;;;7.00;99.90;;;;;;4996458;28;20169;-63
2022/01/02 04:24:17;;;;;;;7.10;5.50;;;6.70;99.90;;;;;;4997052;28;20311;-63
2022/01/02 04:26:43;;;;;;;7.63;5.53;;;6.70;99.90;;;;;;4996558;28;20247;-63
2022/01/02 04:29:08;;;;;;;7.70;5.70;;;6.80;99.90;;;;;;4996428;28;20448;-63
2022/01/02 04:31:34;;;;;;;6.97;5.77;;;6.80;99.90;;;;;;4996371;28;20594;-63
2022/01/02 04:33:59;;;;;;;5.93;5.43;;;6.90;99.90;;;;;;4996257;28;20541;-63
2022/01/02 04:38:54;;;;;;;7.47;5.10;;;7.10;99.90;;;;;;5016515;23;20239;-61
2022/01/02 04:41:20;;;;;;;6.47;5.80;;;7.20;99.90;;;;;;4995806;28;20405;-62
2022/01/02 04:43:46;;;;;;;8.03;6.70;;;7.10;99.90;;;;;;4996193;28;20172;-61
2022/01/02 04:46:11;;;;;;;5.93;5.17;;;7.10;99.90;;;;;;4996509;28;20556;-62
2022/01/02 04:48:37;;;;;;;6.53;5.27;;;7.00;99.90;;;;;;4995987;28;20223;-62
2022/01/02 04:51:02;;;;;;;5.83;4.83;;;7.00;99.90;;;;;;4995988;28;20198;-62
2022/01/02 04:53:28;;;;;;;6.90;6.10;;;7.00;99.90;;;;;;4995825;28;20254;-62
2022/01/02 04:55:54;;;;;;;6.73;6.07;;;7.00;99.90;;;;;;4996011;28;20183;-62
2022/01/02 04:58:19;;;;;;;6.13;5.53;;;7.10;99.90;;;;;;4995563;28;20185;-62
2022/01/02 05:00:45;;;;;;;7.90;6.00;;;7.00;99.90;;;;;;4995711;28;20166;-62
2022/01/02 05:03:10;;;;;;;5.53;4.93;;;7.00;99.90;;;;;;4995932;28;20168;-62
2022/01/02 05:05:36;;;;;;;6.70;5.87;;;7.10;99.90;;;;;;4996291;28;20187;-62
2022/01/02 05:08:02;;;;;;;7.17;6.23;;;7.10;99.90;;;;;;4995569;28;20192;-62
2022/01/02 05:10:27;;;;;;;6.90;5.80;;;7.10;99.90;;;;;;4995521;28;20193;-62
2022/01/02 05:12:53;;;;;;;5.23;4.73;;;7.10;99.90;;;;;;4995732;28;20201;-62
2022/01/02 05:15:18;;;;;;;7.53;5.30;;;7.20;99.90;;;;;;4995452;28;20169;-62
2022/01/02 05:17:44;;;;;;;6.00;5.20;;;7.20;99.90;;;;;;4995608;28;20604;-62
2022/01/02 05:20:10;;;;;;;7.00;5.80;;;7.10;99.90;;;;;;4995571;28;20260;-58
2022/01/02 05:22:35;;;;;;;5.80;4.80;;;7.10;99.90;;;;;;4995302;28;20646;-61
2022/01/02 05:25:01;;;;;;;5.97;5.13;;;7.20;99.90;;;;;;4995525;28;20255;-62
2022/01/02 05:27:27;;;;;;;9.73;5.63;;;7.20;99.90;;;;;;4995134;28;20191;-62
2022/01/02 05:29:52;;;;;;;8.43;6.13;;;7.20;99.90;;;;;;4995061;28;20201;-62
2022/01/02 05:32:18;;;;;;;5.03;4.60;;;7.30;99.90;;;;;;4995521;28;20637;-61
2022/01/02 05:34:43;;;;;;;7.90;5.43;;;7.20;99.90;;;;;;4995357;28;20626;-62
2022/01/02 05:37:09;;;;;;;6.10;4.97;;;7.10;99.90;;;;;;4994783;28;20196;-62
2022/01/02 05:39:34;;;;;;;5.97;5.20;;;7.10;99.90;;;;;;4995275;28;20168;-62
2022/01/02 05:42:00;;;;;;;5.67;5.17;;;7.20;99.90;;;;;;4994912;28;20541;-62
2022/01/02 05:44:25;;;;;;;5.30;4.80;;;7.20;99.90;;;;;;4994831;28;20181;-62
2022/01/02 05:46:52;;;;;;;7.00;5.80;;;7.20;99.90;;;;;;4995305;28;20193;-62
2022/01/02 05:49:18;;;;;;;7.90;6.57;;;7.20;99.90;;;;;;4995046;28;20288;-60
2022/01/02 05:51:43;;;;;;;7.20;6.50;;;7.30;99.90;;;;;;4994704;28;20547;-61
2022/01/02 05:54:09;;;;;;;9.80;8.83;;;7.50;99.90;;;;;;4994493;28;20224;-61
2022/01/02 05:56:34;;;;;;;9.80;8.00;;;7.60;99.90;;;;;;4995035;28;20176;-62
2022/01/02 05:59:00;;;;;;;10.20;9.10;;;7.60;99.90;;;;;;4994858;28;20201;-62
2022/01/02 06:01:26;;;;;;;9.90;9.00;;;7.60;99.90;;;;;;4995333;28;20679;-62
2022/01/02 06:03:52;;;;;;;12.70;10.70;;;7.70;99.90;;;;;;4994620;28;20171;-62
2022/01/02 06:06:18;;;;;;;13.60;11.23;;;7.80;99.90;;;;;;4994759;28;20417;-62
2022/01/02 06:08:43;;;;;;;10.10;8.93;;;7.80;99.90;;;;;;4994511;28;20225;-62
2022/01/02 06:11:10;;;;;;;8.73;7.87;;;7.80;99.90;;;;;;4994604;28;20417;-62
2022/01/02 06:13:35;;;;;;;8.90;7.60;;;7.70;99.90;;;;;;4994482;28;20165;-63
2022/01/02 06:16:01;;;;;;;8.50;6.47;;;7.70;99.90;;;;;;4994417;28;20434;-62
2022/01/02 06:18:27;;;;;;;7.53;6.80;;;7.70;99.90;;;;;;4994299;28;20200;-62
2022/01/02 06:20:52;;;;;;;8.43;7.60;;;7.70;99.90;;;;;;4994539;28;20174;-63
2022/01/02 06:23:18;;;;;;;8.27;5.33;;;7.80;99.90;;;;;;4994534;28;20169;-63
2022/01/02 06:25:44;;;;;;;7.43;6.73;;;7.80;99.90;;;;;;4994442;28;20202;-62
2022/01/02 06:28:10;;;;;;;7.40;6.70;;;7.80;99.90;;;;;;4994179;28;20190;-60
2022/01/02 06:30:36;;;;;;;7.07;6.33;;;7.80;99.90;;;;;;4993991;28;20575;-61
2022/01/02 06:33:03;;;;;;;6.83;6.23;;;7.80;99.90;;;;;;4994333;28;20233;-61
2022/01/02 06:35:32;;;;;;;7.30;6.10;;;7.80;99.90;;;;;;4994255;28;20774;-61
2022/01/02 06:37:58;;;;;;;6.90;6.20;;;7.80;99.90;;;;;;4993779;28;20445;-62
2022/01/02 06:40:26;;;;;;;7.33;6.63;;;7.80;99.90;;;;;;4993927;28;20445;-58
2022/01/02 06:42:52;;;;;;;7.63;6.70;;;7.80;99.90;;;;;;4994203;28;20416;-62
2022/01/02 06:45:18;;;;;;;6.60;6.00;;;7.70;99.90;;;;;;4993944;28;20402;-61
2022/01/02 06:47:45;;;;;;;6.80;6.10;;;7.90;99.90;;;;;;4994182;28;20949;-61
2022/01/02 06:50:12;;;;;;;7.43;6.70;;;7.90;99.90;;;;;;4993704;28;20455;-62
2022/01/02 06:52:38;;;;;;;6.43;5.83;;;7.90;99.90;;;;;;4994084;28;20434;-62
2022/01/02 06:55:04;;;;;;;6.93;6.23;;;8.00;99.90;;;;;;4994153;28;20409;-62
2022/01/02 06:57:30;;;;;;;7.20;6.60;;;8.00;99.90;;;;;;4993692;28;20805;-62
2022/01/02 06:59:55;;;;;;;6.00;5.40;;;8.00;99.90;;;;;;4993884;28;20425;-62
2022/01/02 07:02:21;;;;;;;8.40;6.07;;;7.80;99.90;;;;;;4994198;28;20173;-62
2022/01/02 07:04:46;;;;;;;6.50;5.37;;;7.70;99.90;;;;;;4996771;28;20653;-62
2022/01/02 07:07:12;;;;;;;6.60;6.00;;;7.60;99.90;;;;;;4997741;28;20270;-62
2022/01/02 07:09:38;;;;;;;7.77;6.67;;;7.60;99.90;;;;;;4997665;28;20211;-62
2022/01/02 07:12:04;;;;;;;6.60;6.00;;;7.60;99.90;;;;;;4997787;28;20246;-60
2022/01/02 07:14:30;;;;;;;8.47;5.50;;;7.70;99.90;;;;;;4997822;28;20416;-61
2022/01/02 07:17:00;;;;;;;5.97;5.37;;;7.80;99.90;;;;;;4997834;28;20433;-62
2022/01/02 07:19:26;;;;;;;6.13;5.33;;;7.90;99.90;;;;;;4997613;28;20418;-62
2022/01/02 07:21:52;;;;;;;6.93;6.23;;;8.00;99.90;;;;;;4997688;28;20485;-61
2022/01/02 07:24:18;;;;;;;6.20;5.23;;;8.00;99.90;;;;;;4998440;28;20439;-62
2022/01/02 07:26:44;;;;;;;6.00;5.40;;;8.10;99.90;;;;;;4997630;28;20420;-62
2022/01/02 07:29:11;;;;;;;5.43;4.93;;;8.00;99.90;;;;;;4996064;28;20453;-62
2022/01/02 07:31:37;;;;;;;7.70;6.07;;;8.00;99.90;;;;;;4997632;28;20400;-62
2022/01/02 07:34:04;;;;;;;5.73;5.20;;;8.00;99.90;;;;;;4997958;28;20412;-59
2022/01/02 07:36:30;;;;;;;6.40;4.80;;;8.00;99.90;;;;;;4997601;28;20436;-62
2022/01/02 07:38:55;;;;;;;5.50;5.00;;;8.10;99.90;;;;;;4997201;28;20519;-62
2022/01/02 07:41:21;;;;;;;7.13;4.93;;;8.20;99.90;;;;;;4997356;28;20178;-62
2022/01/02 07:43:47;;;;;;;6.30;5.70;;;8.20;99.90;;;;;;4997216;28;20180;-62
2022/01/02 07:46:12;;;;;;;8.23;7.40;;;8.20;99.90;;;;;;4997101;28;20261;-62
2022/01/02 07:48:38;;;;;;;11.30;7.80;;;8.20;99.90;;;;;;4997304;28;20202;-62
2022/01/02 07:51:05;;;;;;;8.60;7.67;;;8.20;99.90;;;;;;4997057;28;20174;-61
2022/01/02 07:53:30;;;;;;;7.87;7.07;;;8.20;99.90;;;;;;4997239;28;20586;-59
2022/01/02 07:55:56;;;;;;;7.93;7.07;;;8.20;99.90;;;;;;4997517;28;20393;-62
2022/01/02 07:58:22;;;;;;;6.73;6.00;;;8.30;99.90;;;;;;4996725;28;20194;-62
2022/01/02 08:00:48;;;;;;;7.80;6.77;;;8.30;99.90;;;;;;4996892;28;20178;-61
2022/01/02 08:03:13;;;;;;;6.83;6.13;;;8.40;99.90;;;;;;4997007;28;20700;-63
2022/01/02 08:05:39;;;;;;;9.53;7.77;;;8.40;99.90;;;;;;4996944;28;20440;-61
2022/01/02 08:08:05;;;;;;;8.63;7.60;;;8.40;99.90;;;;;;4997265;28;20632;-59
2022/01/02 08:10:30;;;;;;;7.60;6.80;;;8.40;99.90;;;;;;4997017;28;20590;-61
2022/01/02 08:12:56;;;;;;;7.57;6.87;;;8.40;99.90;;;;;;4996818;28;20171;-61
2022/01/02 08:15:21;;;;;;;9.10;7.70;;;8.40;99.90;;;;;;4995719;28;20171;-62
2022/01/02 08:17:47;;;;;;;9.40;7.37;;;8.50;99.90;;;;;;4996614;28;20183;-62
2022/01/02 08:20:14;;;;;;;8.40;7.57;;;8.50;99.90;;;;;;4997073;28;20175;-58
2022/01/02 08:22:39;;;;;;;8.30;7.50;;;8.50;99.90;;;;;;4996592;28;20428;-61
2022/01/02 08:25:06;;;;;;;8.17;7.00;;;8.50;99.90;;;;;;4996344;28;20410;-61
2022/01/02 08:27:32;;;;;;;8.27;7.50;;;8.50;99.90;;;;;;4996143;28;20199;-61
2022/01/02 08:29:57;;;;;;;8.80;8.00;;;8.50;99.90;;;;;;4996445;28;20504;-61
2022/01/02 08:32:23;;;;;;;8.70;7.23;;;8.60;99.90;;;;;;4996228;28;20171;-62
2022/01/02 08:34:48;;;;;;;8.83;7.63;;;8.60;99.90;;;;;;4996574;28;20232;-62
2022/01/02 08:37:15;;;;;;;9.40;8.50;;;8.60;99.90;;;;;;4996232;28;20205;-62
2022/01/02 08:39:44;;;;;;;9.10;8.20;;;8.90;99.90;;;;;;4996163;28;20181;-62
2022/01/02 08:42:11;;;;;;;9.80;8.47;;;8.80;99.90;;;;;;4996528;28;20414;-61
2022/01/02 08:44:39;;;;;;;9.10;8.20;;;9.00;99.90;;;;;;4996156;28;20425;-62
2022/01/02 08:47:05;;;;;;;9.00;8.20;;;9.10;99.90;;;;;;4995998;28;20520;-61
2022/01/02 08:49:31;;;;;;;10.73;9.30;;;9.20;99.90;;;;;;4996195;28;21049;-62
2022/01/02 08:51:56;;;;;;;9.10;8.23;;;9.30;99.90;;;;;;4996091;28;20411;-62
2022/01/02 08:54:22;;;;;;;9.50;8.67;;;9.40;99.90;;;;;;4996138;28;20667;-62
2022/01/02 08:56:48;;;;;;;9.13;8.23;;;9.40;99.90;;;;;;4995931;28;20195;-62
2022/01/02 08:59:13;;;;;;;9.70;8.83;;;9.50;99.90;;;;;;4995951;28;20165;-62
2022/01/02 09:01:39;;;;;;;9.33;8.23;;;9.50;99.90;;;;;;4996430;28;20256;-61
2022/01/02 09:04:05;;;;;;;8.63;7.83;;;9.70;99.90;;;;;;4995977;28;20641;-61
2022/01/02 09:06:30;;;;;;;8.27;7.50;;;9.90;99.90;;;;;;4996451;28;20169;-61
2022/01/02 09:08:56;;;;;;;10.70;9.70;;;10.00;99.90;;;;;;4996404;28;20672;-62
2022/01/02 09:11:23;;;;;;;8.53;7.83;;;9.90;99.90;;;;;;4996004;28;20176;-61
2022/01/02 09:13:48;;;;;;;10.60;8.10;;;10.10;99.90;;;;;;4996166;28;20190;-62
2022/01/02 09:16:14;;;;;;;9.43;8.33;;;10.20;99.90;;;;;;4995746;28;20491;-62
2022/01/02 09:18:39;;;;;;;20.00;17.80;;;10.20;99.90;;;;;;4995706;28;20195;-62
2022/01/02 09:21:05;;;;;;;12.67;11.47;;;10.40;99.90;;;;;;4996032;28;20160;-62
2022/01/02 09:23:31;;;;;;;17.40;15.53;;;10.50;99.90;;;;;;4995929;28;20193;-62
2022/01/02 09:25:57;;;;;;;12.77;11.47;;;10.60;99.90;;;;;;4995904;28;20211;-62
2022/01/02 09:28:22;;;;;;;32.37;23.00;;;10.70;99.90;;;;;;4995996;28;20195;-62
2022/01/02 09:30:48;;;;;;;8.43;7.53;;;10.70;99.90;;;;;;4995853;28;20451;-62
2022/01/02 09:33:14;;;;;;;11.63;8.60;;;10.40;99.90;;;;;;4995650;28;20167;-61
2022/01/02 09:35:41;;;;;;;9.90;8.30;;;10.50;99.90;;;;;;4995965;28;20418;-63
2022/01/02 09:38:10;;;;;;;8.37;7.50;;;10.30;99.90;;;;;;4995246;28;20211;-62
2022/01/02 09:40:36;;;;;;;10.17;8.23;;;10.60;99.90;;;;;;4996473;28;20416;-59
2022/01/02 09:43:03;;;;;;;8.67;7.87;;;10.70;99.90;;;;;;4996444;28;20530;-62
2022/01/02 09:45:33;;;;;;;8.67;7.77;;;10.60;99.90;;;;;;4996851;28;20418;-62
2022/01/02 09:47:59;;;;;;;8.33;7.53;;;10.70;99.90;;;;;;4995951;28;20562;-62
2022/01/02 09:50:25;;;;;;;9.17;8.37;;;10.70;99.90;;;;;;4995371;28;21000;-62
2022/01/02 09:52:51;;;;;;;9.67;8.67;;;10.90;99.90;;;;;;4995354;28;20404;-62
2022/01/02 09:55:17;;;;;;;7.37;6.73;;;10.80;99.90;;;;;;4995256;28;20169;-62
2022/01/02 09:57:47;;;;;;;7.87;7.07;;;10.90;99.90;;;;;;4994911;28;20431;-61
2022/01/02 10:00:14;;;;;;;8.53;7.60;;;11.00;99.90;;;;;;4995126;28;20176;-62
2022/01/02 10:02:53;;;;;;;8.77;8.00;;;11.20;99.90;;;;;;4995110;28;20404;-59
2022/01/02 10:05:21;;;;;;;8.23;7.30;;;11.10;99.90;;;;;;4995393;28;20380;-62
2022/01/02 10:07:47;;;;;;;8.47;7.67;;;11.20;99.90;;;;;;4995153;28;20442;-63
2022/01/02 10:10:13;;;;;;;9.27;8.10;;;11.30;99.90;;;;;;4994693;28;20441;-62
2022/01/02 10:12:39;;;;;;;10.57;8.63;;;11.50;99.90;;;;;;4994926;28;20187;-61
2022/01/02 10:15:14;;;;;;;8.60;7.77;;;11.60;99.90;;;;;;4994828;28;20407;-63
2022/01/02 10:18:10;;;;;;;9.10;8.30;;;11.80;99.90;;;;;;4994957;28;20424;-62
2022/01/02 10:20:40;;;;;;;9.20;8.20;;;12.00;99.90;;;;;;4994733;28;20403;-63
2022/01/02 10:23:10;;;;;;;10.53;9.43;;;12.00;99.90;;;;;;4994529;28;20491;-62
2022/01/02 10:25:51;;;;;;;9.17;8.27;;;12.10;99.90;;;;;;4995430;28;20407;-61
2022/01/02 10:28:17;;;;;;;9.07;8.00;;;11.90;99.90;;;;;;4994590;28;20423;-63
2022/01/02 10:30:48;;;;;;;9.70;8.80;;;11.80;99.90;;;;;;4994853;28;20471;-62
2022/01/02 10:33:14;;;;;;;9.03;8.20;;;11.30;99.90;;;;;;4994573;28;20759;-62
2022/01/02 10:35:41;;;;;;;9.47;8.47;;;11.30;99.90;;;;;;4995012;28;20414;-62
2022/01/02 10:38:13;;;;;;;11.07;10.07;;;11.30;99.90;;;;;;5017553;23;20838;-62
2022/01/02 10:40:39;;;;;;;9.60;8.70;;;11.40;99.90;;;;;;4994280;28;20487;-62
2022/01/02 10:43:06;;;;;;;9.63;8.83;;;11.20;99.90;;;;;;4993946;28;20546;-62
2022/01/02 10:45:36;;;;;;;9.20;8.30;;;11.20;99.90;;;;;;4994163;28;20403;-62
2022/01/02 10:48:03;;;;;;;10.73;9.43;;;11.10;99.90;;;;;;4993786;28;20424;-62
2022/01/02 10:50:28;;;;;;;10.40;8.60;;;10.90;99.90;;;;;;4993664;28;20964;-62
2022/01/02 10:52:54;;;;;;;8.97;7.80;;;11.00;99.90;;;;;;4994210;28;20408;-61
2022/01/02 10:55:25;;;;;;;9.27;8.37;;;11.20;99.90;;;;;;4993881;28;20248;-62
2022/01/02 10:57:53;;;;;;;10.07;9.07;;;11.40;99.90;;;;;;4993866;28;20192;-61
2022/01/02 11:00:24;;;;;;;10.33;8.47;;;11.60;99.90;;;;;;4993984;28;20777;-62
2022/01/02 11:02:50;;;;;;;10.70;9.57;;;11.80;99.90;;;;;;4994064;28;20388;-62
2022/01/02 11:05:20;;;;;;;10.27;9.20;;;11.80;99.90;;;;;;4994531;28;20410;-62
2022/01/02 11:07:48;;;;;;;9.43;8.53;;;12.00;99.90;;;;;;4993859;28;20188;-61
2022/01/02 11:10:19;;;;;;;11.63;10.53;;;11.90;99.90;;;;;;4993441;28;20461;-61
2022/01/02 11:12:46;;;;;;;10.53;9.60;;;11.60;99.90;;;;;;4993628;28;20421;-61
2022/01/02 11:15:17;;;;;;;13.07;11.77;;;11.10;99.90;;;;;;4993568;28;20924;-61
2022/01/02 11:17:43;;;;;;;11.67;10.57;;;11.10;99.90;;;;;;4993725;28;20775;-61
2022/01/02 11:20:12;;;;;;;10.87;9.87;;;11.40;99.90;;;;;;4993703;28;20427;-61
2022/01/02 11:23:00;;;;;;;11.07;9.97;;;11.60;99.90;;;;;;4993885;28;20403;-61
2022/01/02 11:25:53;;;;;;;9.70;8.80;;;11.70;99.90;;;;;;4993728;28;20403;-61
2022/01/02 11:28:25;;;;;;;9.70;8.70;;;11.60;99.90;;;;;;4993594;28;20427;-61
2022/01/02 11:30:52;;;;;;;11.10;8.73;;;11.50;99.90;;;;;;4993579;28;20465;-62
2022/01/02 11:33:25;;;;;;;9.73;8.37;;;11.70;99.90;;;;;;4993481;28;20404;-61
2022/01/02 11:35:52;;;;;;;8.53;7.73;;;12.00;99.90;;;;;;4993685;28;20395;-61
2022/01/02 11:38:19;;;;;;;8.70;7.17;;;12.00;99.90;;;;;;4993446;28;20477;-61
2022/01/02 11:40:54;;;;;;;9.63;7.07;;;12.00;99.90;;;;;;4993484;28;20415;-61
2022/01/02 11:43:46;;;;;;;2.50;2.30;;;12.00;99.90;;;;;;4993592;28;20414;-61
2022/01/02 11:46:25;;;;;;;4.80;2.30;;;12.00;99.90;;;;;;4992318;28;20410;-60
2022/01/02 11:49:04;;;;;;;2.07;1.87;;;12.30;99.90;;;;;;4993324;28;20825;-60
2022/01/02 11:51:47;;;;;;;1.43;1.30;;;12.60;99.90;;;;;;4995788;28;20440;-61
2022/01/02 11:54:40;;;;;;;2.17;1.97;;;12.90;99.90;;;;;;4996973;28;20411;-59
2022/01/02 11:57:15;;;;;;;2.10;1.53;;;13.10;99.90;;;;;;4997425;28;20381;-60
2022/01/02 11:59:47;;;;;;;1.53;1.30;;;13.30;99.90;;;;;;4996828;28;20413;-60
2022/01/02 12:02:18;;;;;;;2.20;2.00;;;13.40;99.90;;;;;;4997176;28;20396;-60
2022/01/02 12:04:59;;;;;;;2.03;1.87;;;13.50;99.90;;;;;;4997942;28;20409;-60
2022/01/02 12:07:33;;;;;;;3.40;1.93;;;13.60;99.90;;;;;;4996890;28;20426;-60
2022/01/02 12:10:24;;;;;;;2.13;1.87;;;13.50;99.90;;;;;;4996396;28;20456;-60
2022/01/02 12:13:16;;;;;;;3.37;2.10;;;13.60;99.90;;;;;;4992081;28;20882;-61
2022/01/02 12:15:42;;;;;;;3.90;1.80;;;13.60;99.90;;;;;;4997020;28;20394;-61
2022/01/02 12:18:19;;;;;;;1.67;1.40;;;13.70;99.90;;;;;;4996444;28;20429;-61
2022/01/02 12:20:51;;;;;;;4.30;1.30;;;13.90;99.90;;;;;;4996753;28;20390;-61
2022/01/02 12:23:41;;;;;;;3.37;1.50;;;14.20;99.90;;;;;;4996461;28;20885;-61
2022/01/02 12:26:16;;;;;;;1.87;1.50;;;14.60;99.90;;;;;;4996233;28;20897;-61
2022/01/02 12:28:45;;;;;;;1.93;1.60;;;15.00;99.90;;;;;;4996111;28;20507;-58
2022/01/02 12:31:13;;;;;;;2.23;1.57;;;14.90;99.90;;;;;;4996463;28;20406;-61
2022/01/02 12:33:39;;;;;;;1.90;1.70;;;15.30;99.20;;;;;;4996449;28;20928;-61
2022/01/02 12:36:23;;;;;;;3.43;2.40;;;;;;;;;;4996076;28;20407;-61
2022/01/02 12:39:00;;;;;;;3.87;2.80;;;;;;;;;;4995913;28;20482;-61
2022/01/02 12:41:27;;;;;;;2.97;2.60;;;;;;;;;;4996181;28;20392;-60
2022/01/02 12:44:00;;;;;;;2.43;2.07;;;;;;;;;;4996400;28;20403;-60
2022/01/02 12:46:32;;;;;;;3.27;1.50;;;;;;;;;;4995978;28;20414;-61
2022/01/02 12:48:58;;;;;;;2.40;1.90;;;;;;;;;;4995731;28;20823;-60
2022/01/02 12:51:29;;;;;;;2.10;1.43;;;;;;;;;;4996211;28;20470;-60
2022/01/02 12:54:02;;;;;;;2.97;2.03;;;;;;;;;;4995863;28;20384;-60
2022/01/02 12:56:32;;;;;;;4.10;2.03;;;;;;;;;;4996198;28;20417;-60
2022/01/02 12:59:17;;;;;;;1.67;1.40;;;;;;;;;;4995641;28;20829;-60
2022/01/02 13:01:49;;;;;;;4.90;1.90;;;;;;;;;;4995342;28;20753;-61
2022/01/02 13:04:17;;;;;;;3.83;2.33;;;;;;;;;;4995636;28;20411;-60
2022/01/02 13:06:50;;;;;;;2.03;1.60;;;;;;;;;;4995670;28;20462;-59